Time;durP1;ratioP1;P1;durP2;ratioP2;P2;SDS_P1;SDS_P2;PMS_P1;PMS_P2;Temp;Humidity;BMP_temperature;BMP_pressure;BME280_temperature;BME280_humidity;BME280_pressure;Samples;Min_cycle;Max_cycle;Signal;HPM_P1;HPM_P2
2023/10/22 00:00:03;;;;;;;6.57;1.45;;;;;;;;;;5004865;28;20041;-58
2023/10/22 00:02:29;;;;;;;6.93;1.48;;;;;;;;;;5020760;28;20057;-58
2023/10/22 00:04:55;;;;;;;4.13;1.67;;;;;;;;;;5017346;28;20033;-57
2023/10/22 00:07:21;;;;;;;5.30;2.03;;;;;;;;;;5022077;28;20048;-57
2023/10/22 00:09:48;;;;;;;5.35;1.60;;;;;;;;;;5017982;28;20068;-57
2023/10/22 00:12:14;;;;;;;4.15;1.10;;;;;;;;;;4988764;28;20129;-58
2023/10/22 00:14:40;;;;;;;5.15;1.35;;;;;;;;;;5020630;28;20038;-58
2023/10/22 00:17:06;;;;;;;8.32;1.55;;;;;;;;;;4985614;28;20107;-57
2023/10/22 00:19:32;;;;;;;9.13;1.60;;;;;;;;;;4990217;28;20087;-57
2023/10/22 00:21:58;;;;;;;10.20;1.17;;;;;;;;;;5043690;28;20025;-57
2023/10/22 00:24:24;;;;;;;6.43;1.58;;;18.10;99.90;;;;;;5040279;28;20029;-57
2023/10/22 00:26:49;;;;;;;8.52;1.52;;;18.10;99.90;;;;;;5037380;28;20037;-58
2023/10/22 00:29:15;;;;;;;5.55;1.55;;;18.20;99.90;;;;;;5018272;28;20033;-57
2023/10/22 00:31:41;;;;;;;5.75;1.60;;;18.10;99.90;;;;;;5008599;28;20495;-57
2023/10/22 00:34:07;;;;;;;6.07;1.77;;;18.10;99.90;;;;;;5007296;28;20076;-58
2023/10/22 00:36:32;;;;;;;6.32;1.55;;;18.10;99.90;;;;;;5007358;28;20443;-58
2023/10/22 00:38:58;;;;;;;7.65;1.85;;;18.10;99.90;;;;;;5001860;28;20040;-58
2023/10/22 00:41:24;;;;;;;5.15;1.33;;;18.10;99.90;;;;;;5043517;28;20029;-57
2023/10/22 00:43:50;;;;;;;7.35;1.70;;;;;;;;;;5010242;28;20395;-57
2023/10/22 00:46:23;;;;;;;6.20;1.27;;;;;;;;;;5041348;28;20480;-58
2023/10/22 00:48:50;;;;;;;6.63;1.52;;;;;;;;;;5040969;28;20021;-57
2023/10/22 00:51:17;;;;;;;8.75;1.52;;;17.90;99.90;;;;;;5043547;28;20492;-58
2023/10/22 00:53:44;;;;;;;8.77;1.60;;;18.00;99.90;;;;;;5043976;28;20030;-58
2023/10/22 00:56:12;;;;;;;5.18;1.77;;;18.50;99.90;;;;;;5041590;28;20431;-58
2023/10/22 00:58:38;;;;;;;5.28;1.77;;;18.10;99.90;;;;;;5043860;28;20036;-58
2023/10/22 01:01:08;;;;;;;4.28;1.85;;;18.20;99.90;;;;;;5040986;28;20057;-59
2023/10/22 01:03:38;;;;;;;4.82;1.33;;;18.30;99.90;;;;;;5039608;28;20108;-58
2023/10/22 01:06:05;;;;;;;7.22;2.10;;;18.30;99.90;;;;;;5045827;28;20017;-58
2023/10/22 01:08:35;;;;;;;6.43;1.52;;;18.40;99.90;;;;;;5009924;28;20040;-60
2023/10/22 01:11:09;;;;;;;6.00;1.33;;;18.60;99.90;;;;;;4977565;28;20025;-58
2023/10/22 01:13:35;;;;;;;7.63;1.45;;;18.80;99.90;;;;;;5047889;28;20056;-58
2023/10/22 01:16:01;;;;;;;5.45;1.38;;;18.80;99.90;;;;;;5047582;28;20108;-58
2023/10/22 01:18:27;;;;;;;4.80;1.48;;;18.90;99.90;;;;;;5039076;28;20065;-58
2023/10/22 01:20:53;;;;;;;8.93;1.80;;;18.90;99.90;;;;;;5041650;28;20662;-58
2023/10/22 01:23:19;;;;;;;7.07;1.67;;;18.90;99.90;;;;;;5043079;28;20094;-58
2023/10/22 01:25:45;;;;;;;6.25;1.88;;;18.90;99.90;;;;;;4994578;28;20037;-58
2023/10/22 01:28:11;;;;;;;6.57;1.70;;;19.00;99.90;;;;;;5044206;28;20036;-58
2023/10/22 01:30:37;;;;;;;7.28;1.45;;;19.00;99.90;;;;;;4991361;28;20037;-59
2023/10/22 01:33:03;;;;;;;7.85;1.52;;;19.00;99.90;;;;;;5009139;28;20041;-57
2023/10/22 01:35:28;;;;;;;3.92;1.17;;;19.10;99.90;;;;;;5046035;28;20033;-58
2023/10/22 01:37:54;;;;;;;7.00;1.52;;;19.10;99.90;;;;;;5041900;28;20033;-58
2023/10/22 01:40:20;;;;;;;6.25;2.53;;;19.00;99.90;;;;;;5040411;28;20040;-58
2023/10/22 01:42:46;;;;;;;4.57;1.73;;;19.00;99.90;;;;;;4989520;28;20037;-58
2023/10/22 01:45:12;;;;;;;8.82;1.70;;;19.00;99.90;;;;;;5048073;28;20033;-58
2023/10/22 01:47:38;;;;;;;6.95;1.60;;;18.90;99.90;;;;;;5045542;28;20029;-58
2023/10/22 01:50:05;;;;;;;9.65;1.92;;;18.90;99.90;;;;;;5038241;28;20083;-59
2023/10/22 01:52:31;;;;;;;9.57;1.92;;;18.90;99.90;;;;;;4985367;28;20033;-59
2023/10/22 01:54:57;;;;;;;4.40;1.33;;;19.00;99.90;;;;;;5046928;28;20025;-58
2023/10/22 01:57:23;;;;;;;7.60;1.50;;;18.90;99.90;;;;;;5048842;28;20099;-58
2023/10/22 01:59:50;;;;;;;3.67;1.30;;;18.90;99.90;;;;;;5041732;28;20029;-59
2023/10/22 02:02:17;;;;;;;6.53;1.50;;;18.90;99.90;;;;;;5047600;28;20065;-58
2023/10/22 02:04:43;;;;;;;6.28;1.50;;;19.10;99.90;;;;;;5048193;28;20033;-58
2023/10/22 02:07:09;;;;;;;7.68;1.25;;;18.90;99.90;;;;;;5048257;28;20079;-57
2023/10/22 02:09:35;;;;;;;6.13;1.05;;;19.10;99.90;;;;;;5042681;28;20125;-59
2023/10/22 02:12:00;;;;;;;13.07;1.75;;;19.40;99.90;;;;;;5037558;28;20037;-58
2023/10/22 02:14:26;;;;;;;5.40;1.27;;;19.50;99.90;;;;;;5004160;28;20037;-59
2023/10/22 02:16:52;;;;;;;7.60;1.65;;;19.50;99.90;;;;;;5043160;28;20120;-59
2023/10/22 02:19:18;;;;;;;4.80;1.40;;;19.30;99.90;;;;;;5044860;28;20052;-58
2023/10/22 02:21:45;;;;;;;7.85;1.58;;;19.30;99.90;;;;;;4983841;28;20431;-59
2023/10/22 02:24:11;;;;;;;5.30;1.30;;;19.30;99.90;;;;;;5038356;28;20043;-59
2023/10/22 02:26:36;;;;;;;3.67;1.30;;;19.30;99.90;;;;;;5045301;28;20108;-59
2023/10/22 02:29:03;;;;;;;5.18;1.65;;;19.20;99.90;;;;;;5043463;28;20468;-58
2023/10/22 02:31:28;;;;;;;5.40;1.17;;;19.20;99.90;;;;;;5042633;28;20132;-59
2023/10/22 02:34:03;;;;;;;6.28;1.42;;;19.20;99.90;;;;;;5045496;28;20532;-58
2023/10/22 02:36:29;;;;;;;5.63;1.45;;;19.20;99.90;;;;;;5047123;28;20068;-58
2023/10/22 02:38:56;;;;;;;3.17;1.10;;;19.20;99.90;;;;;;5046566;28;20068;-58
2023/10/22 02:41:22;;;;;;;10.35;2.20;;;19.20;99.90;;;;;;5041920;28;20033;-58
2023/10/22 02:43:48;;;;;;;6.25;1.50;;;19.30;99.90;;;;;;5000813;28;20567;-58
2023/10/22 02:46:15;;;;;;;10.25;1.92;;;18.60;99.90;;;;;;5045574;28;20357;-59
2023/10/22 02:48:41;;;;;;;7.30;2.17;;;19.30;99.90;;;;;;5046669;28;20484;-58
2023/10/22 02:51:07;;;;;;;8.02;1.30;;;19.30;99.90;;;;;;5039168;28;20116;-59
2023/10/22 02:53:32;;;;;;;7.28;1.70;;;19.20;99.90;;;;;;5000840;28;20176;-58
2023/10/22 02:56:00;;;;;;;4.70;1.52;;;19.10;99.90;;;;;;5040176;28;20158;-59
2023/10/22 02:58:28;;;;;;;6.63;1.67;;;19.10;99.90;;;;;;5042651;28;20048;-59
2023/10/22 03:00:55;;;;;;;5.78;1.60;;;19.10;99.90;;;;;;5043837;28;20112;-59
2023/10/22 03:03:22;;;;;;;14.32;2.05;;;19.10;99.90;;;;;;5041593;28;20035;-58
2023/10/22 03:05:47;;;;;;;10.43;2.08;;;19.10;99.90;;;;;;5043073;28;20507;-58
2023/10/22 03:08:13;;;;;;;8.43;1.60;;;19.00;99.90;;;;;;5044468;28;20032;-59
2023/10/22 03:10:39;;;;;;;8.23;2.58;;;19.00;99.90;;;;;;5039256;28;20528;-58
2023/10/22 03:13:06;;;;;;;8.27;1.60;;;18.90;99.90;;;;;;5040589;28;20104;-58
2023/10/22 03:15:32;;;;;;;5.13;1.25;;;18.80;99.90;;;;;;5039739;28;20087;-58
2023/10/22 03:17:57;;;;;;;5.40;1.80;;;18.80;99.90;;;;;;5049567;28;20488;-60
2023/10/22 03:20:24;;;;;;;8.88;1.98;;;18.70;99.90;;;;;;5039380;28;20042;-58
2023/10/22 03:22:50;;;;;;;7.38;1.42;;;18.60;99.90;;;;;;5046254;28;20411;-58
2023/10/22 03:25:17;;;;;;;5.43;1.52;;;;;;;;;;4988586;28;20047;-58
2023/10/22 03:27:43;;;;;;;5.93;1.48;;;;;;;;;;5036079;28;20033;-60
2023/10/22 03:30:10;;;;;;;8.43;1.63;;;;;;;;;;5042947;28;20067;-58
2023/10/22 03:32:38;;;;;;;7.88;1.25;;;;;;;;;;5051002;28;20393;-58
2023/10/22 03:35:06;;;;;;;5.53;1.27;;;;;;;;;;5045797;28;20029;-58
2023/10/22 03:37:32;;;;;;;8.95;2.53;;;;;;;;;;5039350;28;20052;-59
2023/10/22 03:39:58;;;;;;;3.33;0.70;;;;;;;;;;5039096;28;20037;-59
2023/10/22 03:42:24;;;;;;;4.20;1.40;;;;;;;;;;5047375;28;20029;-59
2023/10/22 03:44:50;;;;;;;5.78;1.30;;;;;;;;;;5035189;28;20037;-59
2023/10/22 03:47:16;;;;;;;7.57;2.00;;;;;;;;;;5043006;28;20056;-58
2023/10/22 03:49:42;;;;;;;4.80;1.15;;;17.70;99.90;;;;;;5046134;28;20034;-59
2023/10/22 03:52:08;;;;;;;6.45;1.58;;;17.80;99.90;;;;;;4992886;28;20051;-58
2023/10/22 03:54:34;;;;;;;4.38;1.23;;;;;;;;;;5007246;28;20037;-58
2023/10/22 03:57:00;;;;;;;5.68;1.58;;;17.60;99.90;;;;;;5037668;28;20050;-58
2023/10/22 03:59:25;;;;;;;11.00;1.50;;;17.50;99.90;;;;;;4989255;28;20037;-58
2023/10/22 04:01:52;;;;;;;5.63;1.50;;;17.50;99.90;;;;;;5041651;28;20033;-59
2023/10/22 04:04:18;;;;;;;5.57;1.40;;;17.50;99.90;;;;;;5039768;28;20036;-58
2023/10/22 04:06:43;;;;;;;4.60;1.30;;;17.60;99.90;;;;;;5006626;28;20047;-58
2023/10/22 04:09:09;;;;;;;5.15;1.40;;;17.60;99.90;;;;;;5046213;28;20516;-58
2023/10/22 04:11:35;;;;;;;2.95;0.82;;;;;;;;;;5040953;28;20028;-59
2023/10/22 04:14:01;;;;;;;6.43;1.40;;;17.60;99.90;;;;;;5040815;28;20022;-59
2023/10/22 04:16:27;;;;;;;9.23;2.45;;;17.60;99.90;;;;;;4970271;28;20389;-59
2023/10/22 04:18:52;;;;;;;8.60;1.40;;;17.50;99.90;;;;;;5047875;28;20060;-59
2023/10/22 04:21:18;;;;;;;4.97;1.38;;;17.40;99.90;;;;;;5047534;28;20074;-58
2023/10/22 04:23:44;;;;;;;7.43;1.40;;;17.40;99.90;;;;;;5039781;28;20064;-58
2023/10/22 04:26:14;;;;;;;5.47;0.95;;;17.40;99.90;;;;;;5039202;28;20102;-58
2023/10/22 04:28:43;;;;;;;8.25;0.98;;;;;;;;;;5009476;28;20484;-59
2023/10/22 04:31:09;;;;;;;7.28;1.92;;;;;;;;;;5042535;28;20025;-59
2023/10/22 04:33:36;;;;;;;4.22;1.38;;;17.10;99.90;;;;;;5040563;28;20058;-59
2023/10/22 04:36:02;;;;;;;8.27;1.73;;;17.10;99.90;;;;;;5048647;28;20384;-59
2023/10/22 04:38:29;;;;;;;7.68;2.00;;;17.20;99.90;;;;;;5045503;28;20045;-59
2023/10/22 04:40:55;;;;;;;9.30;1.45;;;17.20;99.90;;;;;;5039907;28;20029;-59
2023/10/22 04:43:21;;;;;;;6.60;1.50;;;17.10;99.90;;;;;;4974351;28;20400;-58
2023/10/22 04:45:50;;;;;;;4.18;1.67;;;17.20;99.90;;;;;;5047271;28;20032;-58
2023/10/22 04:48:16;;;;;;;8.95;1.38;;;17.20;99.90;;;;;;5041114;28;20034;-58
2023/10/22 04:50:44;;;;;;;8.18;2.65;;;17.30;99.90;;;;;;5005595;28;20041;-59
2023/10/22 04:53:10;;;;;;;4.60;1.42;;;17.40;99.90;;;;;;5047157;28;20371;-59
2023/10/22 04:55:36;;;;;;;5.88;1.80;;;17.40;99.90;;;;;;5036570;28;20037;-58
2023/10/22 04:58:02;;;;;;;6.93;2.15;;;17.40;99.90;;;;;;5044790;28;20045;-58
2023/10/22 05:00:28;;;;;;;5.88;1.70;;;17.50;99.90;;;;;;5039849;28;20048;-58
2023/10/22 05:02:54;;;;;;;8.75;2.22;;;17.50;99.90;;;;;;5050692;28;20025;-58
2023/10/22 05:05:21;;;;;;;8.63;2.45;;;17.60;99.90;;;;;;5047848;28;20036;-59
2023/10/22 05:07:50;;;;;;;6.55;2.20;;;17.70;99.90;;;;;;5028392;28;20361;-59
2023/10/22 05:10:16;;;;;;;12.45;2.72;;;17.60;99.90;;;;;;4997839;28;20037;-58
2023/10/22 05:12:42;;;;;;;8.75;2.13;;;17.40;99.90;;;;;;5048914;28;20061;-58
2023/10/22 05:15:08;;;;;;;6.78;1.77;;;17.00;99.90;;;;;;5010277;28;20123;-58
2023/10/22 05:17:34;;;;;;;9.27;1.98;;;17.00;99.90;;;;;;5010963;28;20052;-59
2023/10/22 05:20:00;;;;;;;7.18;1.80;;;16.90;99.90;;;;;;5052022;28;20582;-58
2023/10/22 05:22:26;;;;;;;7.57;2.33;;;17.00;99.90;;;;;;5013265;28;20553;-58
2023/10/22 05:24:52;;;;;;;6.78;2.03;;;16.90;99.90;;;;;;5046845;28;20021;-59
2023/10/22 05:27:18;;;;;;;10.88;2.30;;;16.90;99.90;;;;;;5026529;28;20496;-58
2023/10/22 05:29:48;;;;;;;10.27;2.42;;;17.00;99.90;;;;;;5046211;28;20040;-59
2023/10/22 05:32:16;;;;;;;6.03;2.30;;;16.90;99.90;;;;;;5043250;28;20036;-58
2023/10/22 05:34:42;;;;;;;8.35;2.63;;;16.80;99.90;;;;;;5042904;28;20103;-58
2023/10/22 05:37:08;;;;;;;8.63;2.33;;;16.70;99.90;;;;;;5047073;28;20044;-58
2023/10/22 05:39:36;;;;;;;8.68;2.83;;;17.00;99.90;;;;;;5041845;28;20029;-59
2023/10/22 05:42:06;;;;;;;9.23;2.38;;;17.30;99.90;;;;;;5041563;28;20031;-59
2023/10/22 05:44:35;;;;;;;7.90;2.78;;;18.80;99.90;;;;;;5043344;28;20032;-58
2023/10/22 05:47:01;;;;;;;6.75;2.53;;;20.00;99.90;;;;;;5045475;28;20069;-58
2023/10/22 05:49:27;;;;;;;9.63;3.83;;;;;;;;;;5042612;28;20128;-57
2023/10/22 05:51:54;;;;;;;4.18;1.70;;;23.30;99.90;;;;;;4959074;28;20128;-57
2023/10/22 05:54:20;;;;;;;5.90;1.95;;;;;;;;;;5030085;28;20041;-57
2023/10/22 05:56:47;;;;;;;6.57;2.08;;;;;;;;;;5042801;28;20064;-56
2023/10/22 05:59:13;;;;;;;6.55;2.40;;;;;;;;;;5037837;28;20387;-58
2023/10/22 06:01:41;;;;;;;9.75;3.47;;;;;;;;;;5041161;28;20116;-58
2023/10/22 06:04:08;;;;;;;9.95;2.20;;;;;;;;;;5048553;28;20017;-57
2023/10/22 06:06:33;;;;;;;11.13;3.13;;;29.00;99.90;;;;;;5045683;28;20029;-58
2023/10/22 06:08:59;;;;;;;10.55;5.55;;;28.70;96.80;;;;;;5046704;28;20545;-58
2023/10/22 06:11:25;;;;;;;7.78;3.20;;;26.70;96.20;;;;;;5045754;28;20037;-60
2023/10/22 06:13:51;;;;;;;8.60;3.30;;;26.50;96.60;;;;;;5006862;28;20030;-59
2023/10/22 06:16:17;;;;;;;10.35;2.40;;;26.80;96.50;;;;;;5046244;28;20029;-59
2023/10/22 06:18:43;;;;;;;7.32;2.00;;;25.70;96.60;;;;;;5043361;28;20049;-59
2023/10/22 06:21:16;;;;;;;11.95;2.55;;;24.60;97.00;;;;;;5017227;28;20067;-59
2023/10/22 06:23:42;;;;;;;11.75;2.60;;;22.80;98.40;;;;;;5042924;28;20064;-59
2023/10/22 06:26:12;;;;;;;9.30;2.40;;;22.60;98.80;;;;;;5042322;28;20041;-59
2023/10/22 06:28:39;;;;;;;5.97;2.30;;;21.90;99.40;;;;;;5044591;28;20032;-59
2023/10/22 06:31:09;;;;;;;6.90;2.33;;;;;;;;;;4982718;28;20079;-59
2023/10/22 06:33:36;;;;;;;5.95;2.15;;;;;;;;;;5049375;28;20021;-58
2023/10/22 06:36:16;;;;;;;7.15;2.25;;;21.10;99.90;;;;;;5022995;28;20017;-58
2023/10/22 06:38:43;;;;;;;7.30;2.25;;;;;;;;;;5043678;28;20026;-59
2023/10/22 06:41:22;;;;;;;9.88;2.25;;;20.40;99.90;;;;;;5049815;28;20476;-58
2023/10/22 06:43:48;;;;;;;5.05;2.17;;;20.30;99.90;;;;;;5023145;28;20493;-59
2023/10/22 06:46:17;;;;;;;7.88;2.90;;;;;;;;;;5036807;28;20044;-58
2023/10/22 06:48:43;;;;;;;8.98;2.47;;;20.20;99.90;;;;;;5044001;28;20465;-58
2023/10/22 06:51:15;;;;;;;12.35;2.65;;;20.20;99.90;;;;;;5040161;28;20074;-58
2023/10/22 06:53:42;;;;;;;13.02;3.33;;;20.10;99.90;;;;;;5045839;28;20041;-57
2023/10/22 06:56:09;;;;;;;13.93;5.63;;;20.10;99.90;;;;;;5052369;28;20024;-57
2023/10/22 06:58:35;;;;;;;18.80;10.10;;;20.20;99.90;;;;;;5044241;28;20396;-59
2023/10/22 07:01:08;;;;;;;23.02;11.88;;;21.80;99.90;;;;;;5041037;28;20030;-60
2023/10/22 07:03:35;;;;;;;24.83;14.93;;;23.80;99.90;;;;;;5039336;28;20106;-62
2023/10/22 07:06:01;;;;;;;22.80;11.60;;;;;;;;;;5025285;28;20072;-57
2023/10/22 07:08:28;;;;;;;14.50;7.88;;;24.60;99.90;;;;;;5046843;28;20030;-60
2023/10/22 07:10:54;;;;;;;15.45;8.23;;;;;;;;;;5044444;28;20035;-58
2023/10/22 07:13:20;;;;;;;14.65;7.05;;;29.60;99.90;;;;;;5041716;28;20044;-58
2023/10/22 07:15:47;;;;;;;13.75;6.15;;;;;;;;;;5044898;28;20029;-58
2023/10/22 07:18:13;;;;;;;16.60;7.75;;;31.30;97.30;;;;;;5038867;28;20507;-58
2023/10/22 07:20:39;;;;;;;11.95;4.60;;;31.30;94.50;;;;;;5047165;28;20033;-58
2023/10/22 07:23:06;;;;;;;10.52;4.32;;;;;;;;;;5045092;28;20032;-58
2023/10/22 07:25:33;;;;;;;9.40;2.70;;;30.80;95.20;;;;;;5040203;28;20384;-58
2023/10/22 07:27:59;;;;;;;8.95;3.55;;;29.90;93.50;;;;;;5045046;28;20039;-59
2023/10/22 07:30:24;;;;;;;10.40;3.78;;;30.90;94.70;;;;;;5041229;28;20112;-58
2023/10/22 07:32:54;;;;;;;14.25;5.70;;;29.50;93.90;;;;;;5011656;28;20064;-59
2023/10/22 07:35:20;;;;;;;16.48;7.97;;;28.40;93.60;;;;;;5009713;28;20029;-58
2023/10/22 07:37:46;;;;;;;12.30;6.72;;;27.10;94.20;;;;;;4993430;28;20475;-59
2023/10/22 07:40:17;;;;;;;10.48;5.75;;;;;;;;;;5043337;28;20029;-58
2023/10/22 07:42:48;;;;;;;;;;;27.10;98.30;;;;;;5041569;28;20032;-58
2023/10/22 07:45:14;;;;;;;12.88;4.72;;;;;;;;;;5041819;28;19955;-59
2023/10/22 07:47:40;;;;;;;11.57;4.40;;;28.80;94.30;;;;;;5043506;28;20028;-59
2023/10/22 07:50:06;;;;;;;9.48;3.38;;;;;;;;;;5002145;28;20392;-59
2023/10/22 07:52:34;;;;;;;11.20;3.25;;;;;;;;;;5043288;28;20044;-59
2023/10/22 07:55:00;;;;;;;7.07;2.40;;;30.60;98.60;;;;;;5038778;28;20117;-58
2023/10/22 07:57:27;;;;;;;6.15;2.20;;;29.80;93.00;;;;;;5018045;28;20055;-58
2023/10/22 07:59:55;;;;;;;6.22;2.63;;;28.40;93.40;;;;;;5046718;28;20050;-59
2023/10/22 08:02:21;;;;;;;14.45;2.97;;;27.50;94.00;;;;;;5041349;28;20034;-59
2023/10/22 08:04:46;;;;;;;9.82;2.50;;;27.50;97.50;;;;;;5038853;28;20052;-58
2023/10/22 08:07:12;;;;;;;11.18;4.18;;;27.70;98.10;;;;;;4994757;28;20048;-60
2023/10/22 09:00:44;;;;;;;34.92;27.73;;;32.10;98.90;;;;;;5131557;22;1334346;-57
2023/10/22 09:14:07;;;;;;;8.40;4.30;;;;;;;;;;5046871;28;20090;-58
2023/10/22 09:17:00;;;;;;;6.40;3.10;;;;;;;;;;5045848;28;20511;-57
2023/10/22 09:32:32;;;;;;;8.05;3.42;;;;;;;;;;5031738;28;20044;-59
2023/10/22 09:38:17;;;;;;;5.40;1.98;;;;;;;;;;5031810;28;19916;-58
2023/10/22 09:40:43;;;;;;;8.03;2.70;;;;;;;;;;5032935;28;20034;-57
2023/10/22 09:43:35;;;;;;;10.38;7.60;;;;;;;;;;5032700;28;20283;-59
2023/10/22 09:46:33;;;;;;;8.38;2.38;;;33.00;84.10;;;;;;5032538;28;20030;-59
2023/10/22 09:52:38;;;;;;;6.15;2.33;;;33.10;85.80;;;;;;5031029;28;20044;-59
2023/10/22 10:06:02;;;;;;;9.07;2.42;;;;;;;;;;5032084;28;20109;-60
2023/10/22 10:19:09;;;;;;;6.60;1.70;;;28.30;87.70;;;;;;5029912;28;20120;-59
2023/10/22 10:24:45;;;;;;;6.80;1.70;;;;;;;;;;5030540;28;20040;-59
2023/10/22 10:27:12;;;;;;;5.63;1.63;;;;;;;;;;5030149;28;20018;-60
2023/10/22 10:57:50;;;;;;;13.85;2.47;;;27.50;99.90;;;;;;5031180;28;20043;-59
2023/10/22 11:14:12;;;;;;;9.38;2.33;;;26.90;90.70;;;;;;5031583;28;20044;-60
2023/10/22 11:21:10;;;;;;;17.10;2.83;;;27.10;90.70;;;;;;5031346;28;20044;-60
2023/10/22 11:27:41;;;;;;;14.15;2.72;;;27.10;91.50;;;;;;5027547;28;20036;-60
2023/10/22 11:44:30;;;;;;;8.43;2.63;;;;;;;;;;5023362;28;20453;-59
2023/10/22 11:47:23;;;;;;;7.70;3.22;;;;;;;;;;5031120;28;20075;-59
2023/10/22 11:53:05;;;;;;;7.47;1.90;;;24.80;94.70;;;;;;5027125;28;20040;-59
2023/10/22 12:49:39;;;;;;;6.03;1.70;;;25.00;97.30;;;;;;5030125;28;20041;-61
2023/10/22 12:52:30;;;;;;;5.60;1.80;;;24.60;98.10;;;;;;5024794;28;20037;-60
2023/10/22 13:14:06;;;;;;;4.72;0.90;;;24.60;97.90;;;;;;5033952;28;20175;-59
2023/10/22 13:17:22;;;;;;;6.15;1.90;;;25.00;97.50;;;;;;5030936;28;20044;-59
2023/10/22 13:31:39;;;;;;;7.60;2.47;;;24.30;96.30;;;;;;5033346;28;20052;-59
2023/10/22 14:21:14;;;;;;;3.88;1.30;;;21.10;99.90;;;;;;5023213;28;20065;-58
2023/10/22 14:23:40;;;;;;;4.00;1.48;;;21.10;99.90;;;;;;5010208;28;20057;-59
2023/10/22 14:40:42;;;;;;;10.02;3.50;;;20.80;99.90;;;;;;4993041;28;20040;-58
2023/10/22 14:43:07;;;;;;;13.43;7.35;;;20.70;99.90;;;;;;5006238;28;20026;-59
2023/10/22 14:46:24;;;;;;;24.38;15.75;;;20.40;99.90;;;;;;5010791;28;20022;-58
2023/10/22 14:56:13;;;;;;;41.70;24.92;;;20.60;99.90;;;;;;5010028;28;20044;-59
2023/10/22 14:58:39;;;;;;;43.25;25.83;;;21.00;99.90;;;;;;5011930;28;20033;-57
2023/10/22 15:12:19;;;;;;;12.70;6.10;;;21.20;99.90;;;;;;5010452;28;20133;-58
2023/10/22 15:26:17;;;;;;;43.75;40.55;;;20.90;99.90;;;;;;5028285;28;20524;-56
2023/10/22 15:36:06;;;;;;;4.00;1.57;;;21.40;99.90;;;;;;5030980;28;20071;-58
2023/10/22 15:38:31;;;;;;;6.55;2.28;;;21.40;99.90;;;;;;5009452;28;20306;-57
2023/10/22 16:06:36;;;;;;;10.57;5.30;;;19.40;99.90;;;;;;5029625;28;20036;-59
2023/10/22 16:09:04;;;;;;;4.97;1.85;;;19.60;99.90;;;;;;5023785;28;20045;-58
2023/10/22 17:18:04;;;;;;;15.77;7.93;;;18.70;99.90;;;;;;5009777;28;20100;-56
2023/10/22 17:20:30;;;;;;;10.90;4.93;;;18.90;99.90;;;;;;5011850;28;20027;-56
2023/10/22 17:41:35;;;;;;;5.43;3.05;;;18.90;99.90;;;;;;5019527;28;20088;-56
2023/10/22 18:56:13;;;;;;;7.78;3.20;;;17.20;99.90;;;;;;5012038;28;20044;-56
2023/10/22 20:17:12;;;;;;;8.60;4.10;;;16.50;99.90;;;;;;5018336;28;20059;-58
2023/10/22 20:59:01;;;;;;;7.13;3.03;;;16.90;99.90;;;;;;5002268;28;20085;-59
2023/10/22 21:01:28;;;;;;;6.38;2.85;;;17.00;99.90;;;;;;5010813;28;20038;-59
2023/10/22 21:03:55;;;;;;;4.93;3.00;;;17.10;99.90;;;;;;5010393;28;20057;-59
2023/10/22 21:06:20;;;;;;;4.85;2.30;;;16.80;99.90;;;;;;5008777;28;20041;-59
2023/10/22 21:08:46;;;;;;;5.28;2.30;;;16.90;99.90;;;;;;4985041;28;20048;-58
2023/10/22 21:11:12;;;;;;;5.07;2.63;;;16.80;99.90;;;;;;5011489;28;20048;-58
2023/10/22 21:13:38;;;;;;;6.32;2.70;;;16.70;99.90;;;;;;4993171;28;20057;-58
2023/10/22 21:16:04;;;;;;;8.73;3.33;;;16.70;99.90;;;;;;5011919;28;20029;-60
2023/10/22 21:18:30;;;;;;;4.43;2.55;;;16.80;99.90;;;;;;5012978;28;20034;-60
2023/10/22 21:20:57;;;;;;;6.47;2.88;;;16.90;99.90;;;;;;5015663;28;20030;-60
2023/10/22 21:23:24;;;;;;;9.55;2.83;;;17.20;99.90;;;;;;5015243;28;20088;-60
2023/10/22 21:25:50;;;;;;;8.93;3.13;;;17.50;99.90;;;;;;5015502;28;20033;-59
2023/10/22 21:28:15;;;;;;;5.85;3.13;;;17.50;99.90;;;;;;5020360;28;20129;-58
2023/10/22 21:30:41;;;;;;;9.60;5.78;;;17.30;99.90;;;;;;5015442;28;20111;-58
2023/10/22 21:33:07;;;;;;;11.57;6.70;;;17.30;99.90;;;;;;5015320;28;20500;-58
2023/10/22 21:35:32;;;;;;;17.25;10.02;;;17.00;99.90;;;;;;5014756;28;20049;-61
2023/10/22 21:38:18;;;;;;;15.80;11.88;;;16.90;99.90;;;;;;4952016;28;20039;-60
2023/10/22 21:40:44;;;;;;;17.92;11.90;;;17.00;99.90;;;;;;4964901;28;20151;-59
2023/10/22 21:43:09;;;;;;;14.77;8.88;;;17.10;99.90;;;;;;4953671;28;20070;-60
2023/10/22 21:45:35;;;;;;;15.10;13.15;;;17.10;99.90;;;;;;4954706;28;20077;-60
2023/10/22 21:48:01;;;;;;;15.55;11.60;;;17.00;99.90;;;;;;4957449;28;20047;-62
2023/10/22 21:50:31;;;;;;;10.93;7.45;;;17.00;99.90;;;;;;4945967;29;20078;-58
2023/10/22 21:52:56;;;;;;;8.45;6.07;;;17.10;99.90;;;;;;4941738;29;20123;-60
2023/10/22 21:55:22;;;;;;;10.23;6.53;;;17.20;99.90;;;;;;4941317;28;20035;-59
2023/10/22 21:57:50;;;;;;;10.35;6.15;;;17.10;99.90;;;;;;4944113;28;20047;-60
2023/10/22 22:00:18;;;;;;;8.38;5.50;;;17.30;99.90;;;;;;4967321;28;20046;-60
2023/10/22 22:02:44;;;;;;;15.18;7.25;;;17.30;99.90;;;;;;4972867;28;20089;-59
2023/10/22 22:05:10;;;;;;;18.45;7.82;;;17.30;99.90;;;;;;4956496;28;20042;-59
2023/10/22 22:07:36;;;;;;;13.50;7.45;;;17.50;99.90;;;;;;4972854;28;20117;-58
2023/10/22 22:10:02;;;;;;;12.55;7.55;;;17.30;99.90;;;;;;5005920;28;20890;-58
2023/10/22 22:12:27;;;;;;;11.30;7.57;;;17.10;99.90;;;;;;5033801;28;20501;-57
2023/10/22 22:14:53;;;;;;;13.95;7.93;;;17.20;99.90;;;;;;5031539;28;20140;-58
2023/10/22 22:17:19;;;;;;;13.52;7.47;;;17.20;99.90;;;;;;5031528;28;20045;-60
2023/10/22 22:19:44;;;;;;;10.95;7.57;;;17.50;99.90;;;;;;5033861;28;20041;-57
2023/10/22 22:22:10;;;;;;;14.57;8.50;;;17.50;99.90;;;;;;5031581;28;20128;-61
2023/10/22 22:24:36;;;;;;;13.65;8.35;;;17.10;99.90;;;;;;5031469;28;20041;-58
2023/10/22 22:27:03;;;;;;;12.80;7.88;;;17.30;99.90;;;;;;5031282;28;20038;-57
2023/10/22 22:29:29;;;;;;;12.98;8.13;;;17.20;99.90;;;;;;5033473;28;20512;-61
2023/10/22 22:31:54;;;;;;;13.82;8.68;;;17.00;99.90;;;;;;5033222;28;20041;-60
2023/10/22 22:34:20;;;;;;;14.57;9.00;;;17.10;99.90;;;;;;5033480;28;20044;-58
2023/10/22 22:36:46;;;;;;;12.77;8.98;;;17.10;99.90;;;;;;5033330;28;20026;-60
2023/10/22 22:39:11;;;;;;;13.95;8.73;;;17.10;99.90;;;;;;5033351;28;20036;-57
2023/10/22 22:41:37;;;;;;;12.85;8.35;;;17.30;99.90;;;;;;5033293;28;20033;-57
2023/10/22 22:44:03;;;;;;;16.05;8.90;;;17.00;99.90;;;;;;5033473;28;20045;-60
2023/10/22 22:46:30;;;;;;;13.13;8.55;;;16.70;99.90;;;;;;5033637;28;20029;-59
2023/10/22 22:48:57;;;;;;;13.32;7.70;;;16.50;99.90;;;;;;5033108;28;20036;-60
2023/10/22 22:51:24;;;;;;;11.90;7.45;;;16.20;99.90;;;;;;5033358;28;20466;-61
2023/10/22 22:53:50;;;;;;;8.90;5.85;;;15.70;99.90;;;;;;5033306;28;20079;-59
2023/10/22 22:56:15;;;;;;;11.05;6.38;;;15.60;99.90;;;;;;5030798;28;20049;-60
2023/10/22 22:58:41;;;;;;;9.52;5.65;;;15.60;99.90;;;;;;5030683;28;20049;-61
2023/10/22 23:01:07;;;;;;;37.03;17.90;;;15.30;99.90;;;;;;5032848;28;20030;-57
2023/10/22 23:03:32;;;;;;;9.93;6.50;;;15.30;99.90;;;;;;5014314;28;20045;-59
2023/10/22 23:05:58;;;;;;;11.25;6.63;;;15.30;99.90;;;;;;5032837;28;20038;-59
2023/10/22 23:08:24;;;;;;;11.30;7.07;;;15.30;99.90;;;;;;4995020;28;20100;-57
2023/10/22 23:10:50;;;;;;;11.10;6.55;;;15.40;99.90;;;;;;4970512;28;20136;-58
2023/10/22 23:13:15;;;;;;;47.55;25.05;;;15.60;99.90;;;;;;5013229;28;20384;-59
2023/10/22 23:15:42;;;;;;;9.88;5.97;;;15.60;99.90;;;;;;5013260;28;20113;-56
2023/10/22 23:18:08;;;;;;;9.02;6.25;;;15.70;99.90;;;;;;5012792;28;20072;-60
2023/10/22 23:20:34;;;;;;;16.65;7.68;;;15.30;99.90;;;;;;5013070;28;20117;-58
2023/10/22 23:23:00;;;;;;;15.57;6.57;;;15.40;99.90;;;;;;4994442;28;20453;-60
2023/10/22 23:25:26;;;;;;;8.10;5.03;;;15.30;99.90;;;;;;5012985;28;20038;-59
2023/10/22 23:27:51;;;;;;;49.97;16.20;;;15.30;99.90;;;;;;5012642;28;20073;-59
2023/10/22 23:30:17;;;;;;;9.52;5.40;;;15.00;99.90;;;;;;5012509;28;20034;-60
2023/10/22 23:32:43;;;;;;;9.23;5.30;;;14.70;99.90;;;;;;5012681;28;20041;-57
2023/10/22 23:35:09;;;;;;;13.77;5.97;;;14.70;99.90;;;;;;5012207;28;20033;-57
2023/10/22 23:37:35;;;;;;;9.88;4.25;;;14.70;99.90;;;;;;5012918;28;20030;-58
2023/10/22 23:40:01;;;;;;;9.63;5.57;;;14.70;99.90;;;;;;5012477;28;20493;-58
2023/10/22 23:42:26;;;;;;;12.25;5.70;;;14.80;99.90;;;;;;4993680;28;20037;-60
2023/10/22 23:44:52;;;;;;;8.65;5.10;;;14.70;99.90;;;;;;4993780;28;20092;-61
2023/10/22 23:47:18;;;;;;;6.05;4.47;;;14.80;99.90;;;;;;4993513;28;20095;-59
2023/10/22 23:49:43;;;;;;;8.23;3.83;;;14.70;99.90;;;;;;5012436;28;20034;-56
2023/10/22 23:52:09;;;;;;;6.80;4.72;;;14.70;99.90;;;;;;5012243;28;20082;-60
2023/10/22 23:54:35;;;;;;;8.65;4.57;;;14.70;99.90;;;;;;5012399;28;20084;-58
2023/10/22 23:57:01;;;;;;;8.00;4.00;;;;;;;;;;5012239;28;20033;-60
2023/10/22 23:59:27;;;;;;;9.23;4.20;;;;;;;;;;5020929;28;20073;-58
